createdAt,value
2019-04-11T00:03:05.049Z,4.54
2019-04-11T00:08:01.830Z,4.55
2019-04-11T00:12:59.069Z,4.49
2019-04-11T00:17:55.098Z,4.34
2019-04-11T00:22:51.536Z,4.19
2019-04-11T00:27:48.969Z,4.24
2019-04-11T00:32:45.538Z,4.28
2019-04-11T00:37:41.503Z,4.14
2019-04-11T00:42:37.434Z,4.07
2019-04-11T00:47:33.373Z,4.04
2019-04-11T00:52:29.501Z,3.88
2019-04-11T00:57:25.614Z,3.85
2019-04-11T01:02:21.542Z,3.71
2019-04-11T01:07:18.525Z,3.74
2019-04-11T01:12:14.659Z,3.76
2019-04-11T01:17:10.586Z,3.59
2019-04-11T01:22:07.651Z,3.52
2019-04-11T01:27:04.143Z,3.44
2019-04-11T01:32:04.909Z,3.51
2019-04-11T01:37:01.671Z,3.40
2019-04-11T01:41:58.682Z,3.36
2019-04-11T01:46:54.786Z,3.25
2019-04-11T01:51:50.834Z,3.18
2019-04-11T01:56:47.517Z,3.32
2019-04-11T02:01:45.594Z,3.06
2019-04-11T02:06:42.425Z,3.17
2019-04-11T02:11:39.446Z,3.01
2019-04-11T02:16:35.561Z,3.00
2019-04-11T02:21:31.776Z,2.99
2019-04-11T02:26:33.548Z,2.88
2019-04-11T02:31:30.564Z,2.93
2019-04-11T02:36:27.354Z,2.82
2019-04-11T02:41:25.472Z,2.86
2019-04-11T02:46:31.933Z,2.76
2019-04-11T02:51:20.585Z,2.71
2019-04-11T02:56:17.405Z,2.73
2019-04-11T03:01:15.472Z,2.63
2019-04-11T03:06:11.740Z,2.57
2019-04-11T03:11:10.693Z,2.60
2019-04-11T03:16:23.912Z,2.54
2019-04-11T03:21:10.319Z,2.53
2019-04-11T03:26:03.183Z,2.42
2019-04-11T03:31:37.496Z,2.36
2019-04-11T03:36:53.929Z,2.39
2019-04-11T03:41:12.829Z,2.34
2019-04-11T03:46:16.010Z,2.24
2019-04-11T03:50:55.498Z,2.21
2019-04-11T03:55:53.705Z,2.10
2019-04-11T04:00:52.867Z,2.18
2019-04-11T04:05:48.791Z,2.24
2019-04-11T04:11:05.637Z,2.15
2019-04-11T04:16:18.755Z,2.05
2019-04-11T04:21:18.891Z,2.05
2019-04-11T04:26:16.823Z,1.97
2019-04-11T04:31:13.985Z,2.04
2019-04-11T04:36:11.289Z,1.99
2019-04-11T04:41:25.210Z,1.99
2019-04-11T04:46:23.720Z,1.96
2019-04-11T04:51:09.073Z,1.90
2019-04-11T04:56:04.153Z,1.76
2019-04-11T05:01:01.413Z,1.89
2019-04-11T05:05:58.435Z,1.93
2019-04-11T05:10:55.776Z,1.91
2019-04-11T05:16:04.465Z,1.97
2019-04-11T05:20:49.709Z,2.02
2019-04-11T05:25:46.619Z,2.00
2019-04-11T05:30:42.647Z,2.08
2019-04-11T05:35:39.559Z,2.17
2019-04-11T05:40:35.594Z,2.26
2019-04-11T05:45:31.790Z,2.48
2019-04-11T05:50:29.062Z,2.60
2019-04-11T05:55:26.454Z,2.40
2019-04-11T06:00:41.013Z,2.69
2019-04-11T06:05:43.178Z,3.08
2019-04-11T06:10:57.999Z,4.39
2019-04-11T06:16:01.345Z,5.40
2019-04-11T06:21:01.925Z,5.32
2019-04-11T06:31:24.819Z,5.19
2019-04-11T06:36:26.639Z,5.11
2019-04-11T06:41:27.627Z,4.31
2019-04-11T06:46:50.477Z,3.97
2019-04-11T06:51:41.624Z,3.98
2019-04-11T06:56:39.461Z,4.12
2019-04-11T07:01:36.239Z,4.95
2019-04-11T07:06:37.750Z,5.08
2019-04-11T07:11:48.497Z,4.98
2019-04-11T07:17:07.143Z,4.84
2019-04-11T07:22:03.066Z,5.27
2019-04-11T07:27:01.001Z,5.60
2019-04-11T07:32:07.666Z,6.10
2019-04-11T07:37:23.532Z,6.83
2019-04-11T07:42:25.927Z,7.21
2019-04-11T07:47:26.389Z,7.73
2019-04-11T07:52:22.166Z,7.74
2019-04-11T07:57:36.280Z,7.94
2019-04-11T08:02:53.186Z,8.32
2019-04-11T08:08:00.025Z,9.13
2019-04-11T08:12:58.258Z,8.50
2019-04-11T08:17:54.377Z,9.17
2019-04-11T08:22:52.343Z,8.69
2019-04-11T08:28:00.064Z,8.07
2019-04-11T08:32:55.744Z,8.06
2019-04-11T08:38:12.021Z,9.09
2019-04-11T08:43:10.916Z,8.14
2019-04-11T08:48:08.855Z,9.16
2019-04-11T08:53:16.519Z,8.29
2019-04-11T08:58:16.170Z,8.95
2019-04-11T09:03:33.567Z,9.94
2019-04-11T09:08:54.410Z,10.22
2019-04-11T09:14:11.935Z,9.77
2019-04-11T09:19:14.653Z,8.82
2019-04-11T09:24:24.798Z,10.76
2019-04-11T09:29:22.604Z,10.53
2019-04-11T09:34:23.863Z,10.17
2019-04-11T09:44:47.023Z,11.36
2019-04-11T09:49:53.846Z,11.25
2019-04-11T09:54:54.821Z,11.66
2019-04-11T10:00:05.823Z,11.21
2019-04-11T10:05:05.279Z,10.97
2019-04-11T10:10:04.544Z,9.96
2019-04-11T10:15:03.144Z,10.64
2019-04-11T10:20:00.748Z,11.14
2019-04-11T10:25:05.212Z,11.10
2019-04-11T10:30:06.563Z,10.20
2019-04-11T10:35:22.074Z,10.27
2019-04-11T10:40:32.275Z,10.37
2019-04-11T10:45:31.197Z,11.75
2019-04-11T10:50:46.623Z,10.99
2019-04-11T10:56:02.543Z,10.70
2019-04-11T11:01:00.357Z,10.29
2019-04-11T11:06:00.732Z,10.09
2019-04-11T11:10:59.713Z,9.54
2019-04-11T11:15:56.054Z,10.00
2019-04-11T11:20:56.752Z,9.22
2019-04-11T11:26:10.954Z,8.91
2019-04-11T11:31:08.802Z,9.18
2019-04-11T11:36:23.821Z,9.93
2019-04-11T11:41:38.655Z,10.36
2019-04-11T11:46:42.643Z,10.59
2019-04-11T11:51:58.436Z,10.44
2019-04-11T11:56:56.152Z,10.15
2019-04-11T12:01:54.410Z,10.15
2019-04-11T12:06:55.939Z,10.19
2019-04-11T12:12:02.448Z,10.60
2019-04-11T12:17:05.189Z,10.94
2019-04-11T12:22:02.241Z,11.01
2019-04-11T12:27:00.506Z,10.96
2019-04-11T12:32:01.137Z,10.69
2019-04-11T12:36:58.421Z,10.90
2019-04-11T12:41:56.423Z,11.00
2019-04-11T12:47:00.306Z,11.51
2019-04-11T12:52:15.001Z,11.25
2019-04-11T12:57:29.099Z,11.18
2019-04-11T13:02:46.283Z,11.43
2019-04-11T13:08:00.679Z,10.91
2019-04-11T13:13:15.606Z,11.25
2019-04-11T13:18:30.323Z,11.15
2019-04-11T13:23:50.373Z,10.50
2019-04-11T13:29:04.683Z,10.61
2019-04-11T13:34:02.521Z,10.74
2019-04-11T13:39:02.363Z,10.27
2019-04-11T13:43:56.871Z,10.07
2019-04-11T13:49:12.986Z,9.65
2019-04-11T13:54:24.911Z,9.88
2019-04-11T13:59:25.753Z,9.68
2019-04-11T14:04:29.654Z,9.70
2019-04-11T14:09:31.304Z,9.44
2019-04-11T14:14:27.546Z,9.69
2019-04-11T14:19:34.238Z,9.03
2019-04-11T14:24:32.623Z,9.77
2019-04-11T14:29:30.442Z,9.44
2019-04-11T14:34:29.343Z,9.62
2019-04-11T14:39:27.383Z,9.81
2019-04-11T14:44:25.221Z,9.77
2019-04-11T14:49:21.148Z,9.86
2019-04-11T14:54:23.702Z,10.16
2019-04-11T14:59:27.627Z,10.11
2019-04-11T15:04:43.646Z,10.04
2019-04-11T15:09:46.773Z,9.80
2019-04-11T15:14:47.506Z,9.62
2019-04-11T15:19:44.900Z,9.61
2019-04-11T15:24:43.405Z,9.75
2019-04-11T15:29:39.306Z,9.59
2019-04-11T15:34:42.955Z,9.42
2019-04-11T15:39:44.610Z,9.51
2019-04-11T15:44:48.253Z,9.44
2019-04-11T15:50:03.096Z,9.46
2019-04-11T15:55:19.321Z,9.26
2019-04-11T16:00:17.463Z,9.34
2019-04-11T16:05:18.038Z,9.37
2019-04-11T16:10:14.969Z,9.35
2019-04-11T16:15:12.812Z,9.17
2019-04-11T16:20:10.046Z,9.17
2019-04-11T16:25:11.469Z,9.22
2019-04-11T16:30:10.219Z,9.16
2019-04-11T16:35:11.991Z,9.03
2019-04-11T16:40:26.457Z,9.11
2019-04-11T16:45:39.410Z,8.99
2019-04-11T16:50:35.386Z,8.80
2019-04-11T16:55:32.117Z,8.69
2019-04-11T17:00:28.266Z,8.48
2019-04-11T17:05:26.802Z,8.18
2019-04-11T17:10:41.011Z,8.36
2019-04-11T17:15:37.100Z,8.31
2019-04-11T17:20:35.687Z,8.06
2019-04-11T17:25:30.862Z,8.21
2019-04-11T17:30:26.790Z,8.20
2019-04-11T17:35:22.732Z,8.18
2019-04-11T17:40:18.731Z,7.96
2019-04-11T17:45:14.668Z,8.00
2019-04-11T17:50:10.601Z,7.94
2019-04-11T17:55:07.045Z,7.89
2019-04-11T18:00:06.874Z,7.78
2019-04-11T18:05:04.412Z,7.77
2019-04-11T18:10:00.342Z,7.63
2019-04-11T18:14:56.270Z,7.55
2019-04-11T18:19:52.215Z,7.55
2019-04-11T18:24:54.099Z,7.54
2019-04-11T18:29:52.584Z,7.49
2019-04-11T18:34:47.865Z,7.43
2019-04-11T18:39:43.801Z,7.37
2019-04-11T18:44:39.726Z,7.35
2019-04-11T18:49:35.645Z,7.35
2019-04-11T18:54:34.148Z,7.33
2019-04-11T18:59:33.815Z,7.28
2019-04-11T19:04:32.763Z,7.24
2019-04-11T19:09:26.030Z,7.09
2019-04-11T19:14:24.558Z,7.12
2019-04-11T19:19:19.795Z,7.00
2019-04-11T19:24:16.032Z,7.06
2019-04-11T19:29:11.963Z,6.95
2019-04-11T19:34:08.905Z,6.96
2019-04-11T19:39:06.829Z,6.96
2019-04-11T19:44:03.059Z,6.88
2019-04-11T19:48:59.477Z,6.89
2019-04-11T19:53:55.717Z,6.76
2019-04-11T19:58:51.666Z,6.81
2019-04-11T20:03:47.584Z,6.81
2019-04-11T20:08:43.545Z,6.75
2019-04-11T20:13:39.471Z,6.64
2019-04-11T20:18:35.395Z,6.78
2019-04-11T20:23:31.334Z,6.71
2019-04-11T20:28:27.233Z,6.72
2019-04-11T20:33:27.457Z,6.53
2019-04-11T20:38:20.996Z,6.60
2019-04-11T20:43:16.930Z,6.42
2019-04-11T20:48:12.854Z,6.52
2019-04-11T20:53:12.930Z,6.44
2019-04-11T20:58:09.914Z,6.49
2019-04-11T21:03:04.477Z,6.48
2019-04-11T21:08:02.971Z,6.51
2019-04-11T21:12:58.252Z,6.48
2019-04-11T21:17:56.128Z,6.40
2019-04-11T21:22:53.918Z,6.39
2019-04-11T21:27:49.929Z,6.37
2019-04-11T21:32:45.857Z,6.38
2019-04-11T21:37:41.798Z,6.29
2019-04-11T21:42:37.800Z,6.28
2019-04-11T21:47:36.898Z,6.29
2019-04-11T21:52:32.299Z,6.37
2019-04-11T21:57:28.510Z,6.40
2019-04-11T22:02:24.908Z,6.18
2019-04-11T22:07:20.956Z,6.12
2019-04-11T22:12:16.883Z,6.19
2019-04-11T22:17:15.257Z,6.22
2019-04-11T22:22:10.739Z,6.21
2019-04-11T22:27:06.672Z,6.10
2019-04-11T22:32:02.801Z,6.18
2019-04-11T22:36:59.953Z,6.09
2019-04-11T22:41:56.554Z,6.22
2019-04-11T22:46:52.582Z,6.11
2019-04-11T22:51:48.551Z,6.08
2019-04-11T22:56:44.560Z,6.12
2019-04-11T23:01:41.389Z,6.20
2019-04-11T23:06:37.366Z,6.16
2019-04-11T23:11:33.413Z,6.14
2019-04-11T23:16:29.342Z,6.04
2019-04-11T23:21:25.337Z,6.02
2019-04-11T23:26:21.422Z,5.93
2019-04-11T23:31:19.729Z,5.86
2019-04-11T23:36:15.384Z,6.02
2019-04-11T23:41:11.643Z,5.82
2019-04-11T23:46:07.579Z,5.66
2019-04-11T23:51:03.577Z,5.83
2019-04-11T23:56:00.133Z,5.77
